sensor_id;sensor_type;location;lat;lon;timestamp;P1;durP1;ratioP1;P2;durP2;ratioP2
53714;SDS011;39608;55.630;37.864;2023-05-10T00:00:47;9.10;;;4.25;;
53714;SDS011;39608;55.630;37.864;2023-05-10T00:05:49;12.82;;;4.95;;
53714;SDS011;39608;55.630;37.864;2023-05-10T00:10:51;16.33;;;5.35;;
53714;SDS011;39608;55.630;37.864;2023-05-10T00:15:55;10.68;;;5.72;;
53714;SDS011;39608;55.630;37.864;2023-05-10T00:20:58;15.80;;;6.07;;
53714;SDS011;39608;55.630;37.864;2023-05-10T00:26:00;10.65;;;5.68;;
53714;SDS011;39608;55.630;37.864;2023-05-10T00:31:04;15.75;;;6.43;;
53714;SDS011;39608;55.630;37.864;2023-05-10T00:36:06;11.35;;;6.18;;
53714;SDS011;39608;55.630;37.864;2023-05-10T00:41:08;16.35;;;7.00;;
53714;SDS011;39608;55.630;37.864;2023-05-10T00:46:12;12.15;;;6.82;;
53714;SDS011;39608;55.630;37.864;2023-05-10T00:51:16;12.50;;;6.20;;
53714;SDS011;39608;55.630;37.864;2023-05-10T00:56:18;13.50;;;6.55;;
53714;SDS011;39608;55.630;37.864;2023-05-10T01:01:24;7.43;;;4.28;;
53714;SDS011;39608;55.630;37.864;2023-05-10T01:06:26;9.30;;;4.15;;
53714;SDS011;39608;55.630;37.864;2023-05-10T01:11:29;9.32;;;3.78;;
53714;SDS011;39608;55.630;37.864;2023-05-10T01:16:33;7.88;;;4.13;;
53714;SDS011;39608;55.630;37.864;2023-05-10T01:21:41;6.95;;;3.90;;
53714;SDS011;39608;55.630;37.864;2023-05-10T01:32:28;7.38;;;3.10;;
53714;SDS011;39608;55.630;37.864;2023-05-10T01:37:38;12.48;;;3.67;;
53714;SDS011;39608;55.630;37.864;2023-05-10T01:42:46;8.40;;;3.67;;
53714;SDS011;39608;55.630;37.864;2023-05-10T01:47:55;9.18;;;4.10;;
53714;SDS011;39608;55.630;37.864;2023-05-10T01:53:06;7.53;;;3.92;;
53714;SDS011;39608;55.630;37.864;2023-05-10T01:58:13;10.90;;;3.70;;
53714;SDS011;39608;55.630;37.864;2023-05-10T02:03:18;6.70;;;3.33;;
53714;SDS011;39608;55.630;37.864;2023-05-10T02:08:23;10.18;;;2.55;;
53714;SDS011;39608;55.630;37.864;2023-05-10T02:13:26;5.78;;;3.03;;
53714;SDS011;39608;55.630;37.864;2023-05-10T02:18:31;10.02;;;3.35;;
53714;SDS011;39608;55.630;37.864;2023-05-10T02:23:35;6.80;;;2.90;;
53714;SDS011;39608;55.630;37.864;2023-05-10T02:28:38;9.82;;;3.00;;
53714;SDS011;39608;55.630;37.864;2023-05-10T02:33:43;4.90;;;2.83;;
53714;SDS011;39608;55.630;37.864;2023-05-10T02:38:47;6.75;;;2.67;;
53714;SDS011;39608;55.630;37.864;2023-05-10T02:43:53;16.13;;;4.25;;
53714;SDS011;39608;55.630;37.864;2023-05-10T02:49:02;11.40;;;4.97;;
53714;SDS011;39608;55.630;37.864;2023-05-10T02:54:06;17.77;;;5.22;;
53714;SDS011;39608;55.630;37.864;2023-05-10T02:59:12;15.80;;;5.47;;
53714;SDS011;39608;55.630;37.864;2023-05-10T03:04:15;14.80;;;5.45;;
53714;SDS011;39608;55.630;37.864;2023-05-10T03:09:17;26.35;;;5.25;;
53714;SDS011;39608;55.630;37.864;2023-05-10T03:14:24;8.10;;;5.07;;
53714;SDS011;39608;55.630;37.864;2023-05-10T03:19:39;11.75;;;4.90;;
53714;SDS011;39608;55.630;37.864;2023-05-10T03:24:45;10.38;;;5.38;;
53714;SDS011;39608;55.630;37.864;2023-05-10T03:29:50;12.07;;;4.78;;
53714;SDS011;39608;55.630;37.864;2023-05-10T03:34:55;14.65;;;4.50;;
53714;SDS011;39608;55.630;37.864;2023-05-10T03:39:57;22.40;;;5.22;;
53714;SDS011;39608;55.630;37.864;2023-05-10T03:44:59;9.90;;;4.93;;
53714;SDS011;39608;55.630;37.864;2023-05-10T03:50:03;10.80;;;4.70;;
53714;SDS011;39608;55.630;37.864;2023-05-10T03:55:06;16.30;;;4.55;;
53714;SDS011;39608;55.630;37.864;2023-05-10T04:00:09;10.98;;;4.32;;
53714;SDS011;39608;55.630;37.864;2023-05-10T04:05:13;18.50;;;6.82;;
53714;SDS011;39608;55.630;37.864;2023-05-10T04:10:15;9.35;;;4.78;;
53714;SDS011;39608;55.630;37.864;2023-05-10T04:15:18;11.70;;;4.95;;
53714;SDS011;39608;55.630;37.864;2023-05-10T04:20:21;15.45;;;5.15;;
53714;SDS011;39608;55.630;37.864;2023-05-10T04:25:23;17.67;;;5.22;;
53714;SDS011;39608;55.630;37.864;2023-05-10T04:30:25;18.63;;;6.28;;
53714;SDS011;39608;55.630;37.864;2023-05-10T04:35:30;15.75;;;4.68;;
53714;SDS011;39608;55.630;37.864;2023-05-10T04:40:32;9.88;;;4.80;;
53714;SDS011;39608;55.630;37.864;2023-05-10T04:45:34;15.10;;;4.80;;
53714;SDS011;39608;55.630;37.864;2023-05-10T04:50:38;15.40;;;5.18;;
53714;SDS011;39608;55.630;37.864;2023-05-10T04:55:40;25.08;;;5.22;;
53714;SDS011;39608;55.630;37.864;2023-05-10T05:00:42;18.60;;;5.15;;
53714;SDS011;39608;55.630;37.864;2023-05-10T05:05:46;19.27;;;6.28;;
53714;SDS011;39608;55.630;37.864;2023-05-10T05:10:48;19.30;;;6.10;;
53714;SDS011;39608;55.630;37.864;2023-05-10T05:15:50;27.48;;;7.05;;
53714;SDS011;39608;55.630;37.864;2023-05-10T05:20:55;27.95;;;6.10;;
53714;SDS011;39608;55.630;37.864;2023-05-10T05:25:57;8.85;;;4.38;;
53714;SDS011;39608;55.630;37.864;2023-05-10T05:30:59;10.80;;;5.28;;
53714;SDS011;39608;55.630;37.864;2023-05-10T05:36:02;19.05;;;4.40;;
53714;SDS011;39608;55.630;37.864;2023-05-10T05:41:06;16.00;;;5.93;;
53714;SDS011;39608;55.630;37.864;2023-05-10T05:46:08;15.82;;;5.78;;
53714;SDS011;39608;55.630;37.864;2023-05-10T05:51:11;24.20;;;5.85;;
53714;SDS011;39608;55.630;37.864;2023-05-10T05:56:13;15.65;;;5.32;;
53714;SDS011;39608;55.630;37.864;2023-05-10T06:01:15;13.00;;;4.88;;
53714;SDS011;39608;55.630;37.864;2023-05-10T06:06:19;18.65;;;5.68;;
53714;SDS011;39608;55.630;37.864;2023-05-10T06:11:21;25.02;;;5.82;;
53714;SDS011;39608;55.630;37.864;2023-05-10T06:16:23;20.35;;;4.97;;
53714;SDS011;39608;55.630;37.864;2023-05-10T06:21:26;15.23;;;2.67;;
53714;SDS011;39608;55.630;37.864;2023-05-10T06:26:28;11.32;;;1.88;;
53714;SDS011;39608;55.630;37.864;2023-05-10T06:31:30;6.88;;;1.70;;
53714;SDS011;39608;55.630;37.864;2023-05-10T06:36:34;8.52;;;1.83;;
53714;SDS011;39608;55.630;37.864;2023-05-10T06:41:36;11.50;;;1.52;;
53714;SDS011;39608;55.630;37.864;2023-05-10T06:46:38;6.10;;;1.50;;
53714;SDS011;39608;55.630;37.864;2023-05-10T06:51:42;8.82;;;1.52;;
53714;SDS011;39608;55.630;37.864;2023-05-10T06:56:44;11.15;;;1.63;;
53714;SDS011;39608;55.630;37.864;2023-05-10T07:01:46;6.20;;;1.25;;
53714;SDS011;39608;55.630;37.864;2023-05-10T07:06:49;3.35;;;1.30;;
53714;SDS011;39608;55.630;37.864;2023-05-10T07:11:51;6.93;;;1.15;;
53714;SDS011;39608;55.630;37.864;2023-05-10T07:16:53;2.65;;;0.98;;
53714;SDS011;39608;55.630;37.864;2023-05-10T07:21:57;5.22;;;1.67;;
53714;SDS011;39608;55.630;37.864;2023-05-10T07:26:59;7.28;;;1.60;;
53714;SDS011;39608;55.630;37.864;2023-05-10T07:32:02;4.80;;;1.45;;
53714;SDS011;39608;55.630;37.864;2023-05-10T07:37:05;3.55;;;1.45;;
53714;SDS011;39608;55.630;37.864;2023-05-10T07:42:07;4.38;;;1.45;;
53714;SDS011;39608;55.630;37.864;2023-05-10T07:47:10;3.60;;;1.20;;
53714;SDS011;39608;55.630;37.864;2023-05-10T07:52:14;4.03;;;1.48;;
53714;SDS011;39608;55.630;37.864;2023-05-10T07:57:17;3.10;;;1.38;;
53714;SDS011;39608;55.630;37.864;2023-05-10T08:02:19;4.93;;;1.25;;
53714;SDS011;39608;55.630;37.864;2023-05-10T08:07:22;5.90;;;1.33;;
53714;SDS011;39608;55.630;37.864;2023-05-10T08:12:28;3.92;;;1.60;;
53714;SDS011;39608;55.630;37.864;2023-05-10T08:17:30;5.88;;;2.10;;
53714;SDS011;39608;55.630;37.864;2023-05-10T08:22:34;5.88;;;1.25;;
53714;SDS011;39608;55.630;37.864;2023-05-10T08:27:36;6.75;;;1.23;;
53714;SDS011;39608;55.630;37.864;2023-05-10T08:32:38;2.47;;;1.10;;
53714;SDS011;39608;55.630;37.864;2023-05-10T08:37:42;5.07;;;1.05;;
53714;SDS011;39608;55.630;37.864;2023-05-10T08:42:45;5.32;;;1.20;;
53714;SDS011;39608;55.630;37.864;2023-05-10T08:47:52;1.95;;;1.13;;
53714;SDS011;39608;55.630;37.864;2023-05-10T08:52:57;3.10;;;1.20;;
53714;SDS011;39608;55.630;37.864;2023-05-10T08:58:04;1.67;;;1.00;;
53714;SDS011;39608;55.630;37.864;2023-05-10T09:03:06;2.35;;;1.08;;
53714;SDS011;39608;55.630;37.864;2023-05-10T09:08:11;4.05;;;1.20;;
53714;SDS011;39608;55.630;37.864;2023-05-10T09:13:14;3.58;;;1.10;;
53714;SDS011;39608;55.630;37.864;2023-05-10T09:18:16;13.40;;;1.23;;
53714;SDS011;39608;55.630;37.864;2023-05-10T09:23:20;2.15;;;1.15;;
53714;SDS011;39608;55.630;37.864;2023-05-10T09:28:22;1.52;;;1.42;;
53714;SDS011;39608;55.630;37.864;2023-05-10T09:33:24;4.57;;;1.20;;
53714;SDS011;39608;55.630;37.864;2023-05-10T09:38:28;1.67;;;1.20;;
53714;SDS011;39608;55.630;37.864;2023-05-10T09:43:45;4.07;;;1.27;;
53714;SDS011;39608;55.630;37.864;2023-05-10T09:48:48;4.35;;;1.20;;
53714;SDS011;39608;55.630;37.864;2023-05-10T09:53:52;6.93;;;1.30;;
53714;SDS011;39608;55.630;37.864;2023-05-10T09:59:11;4.63;;;1.23;;
53714;SDS011;39608;55.630;37.864;2023-05-10T10:04:13;3.00;;;1.00;;
53714;SDS011;39608;55.630;37.864;2023-05-10T10:09:18;2.45;;;1.33;;
53714;SDS011;39608;55.630;37.864;2023-05-10T10:14:21;6.40;;;1.30;;
53714;SDS011;39608;55.630;37.864;2023-05-10T10:19:24;2.85;;;1.27;;
53714;SDS011;39608;55.630;37.864;2023-05-10T10:24:28;10.80;;;1.50;;
53714;SDS011;39608;55.630;37.864;2023-05-10T10:29:31;4.65;;;1.25;;
53714;SDS011;39608;55.630;37.864;2023-05-10T10:34:40;2.38;;;1.30;;
53714;SDS011;39608;55.630;37.864;2023-05-10T10:39:44;1.30;;;1.15;;
53714;SDS011;39608;55.630;37.864;2023-05-10T10:44:46;7.80;;;1.48;;
53714;SDS011;39608;55.630;37.864;2023-05-10T10:49:48;4.90;;;1.27;;
53714;SDS011;39608;55.630;37.864;2023-05-10T10:54:58;4.03;;;1.83;;
53714;SDS011;39608;55.630;37.864;2023-05-10T11:00:22;4.20;;;1.55;;
53714;SDS011;39608;55.630;37.864;2023-05-10T11:11:03;5.05;;;1.48;;
53714;SDS011;39608;55.630;37.864;2023-05-10T11:16:17;4.53;;;1.60;;
53714;SDS011;39608;55.630;37.864;2023-05-10T11:21:20;4.00;;;1.25;;
53714;SDS011;39608;55.630;37.864;2023-05-10T11:26:24;3.80;;;1.40;;
53714;SDS011;39608;55.630;37.864;2023-05-10T11:31:31;10.15;;;1.50;;
53714;SDS011;39608;55.630;37.864;2023-05-10T11:36:35;1.85;;;1.27;;
53714;SDS011;39608;55.630;37.864;2023-05-10T11:41:39;3.50;;;1.30;;
53714;SDS011;39608;55.630;37.864;2023-05-10T11:46:41;7.95;;;1.60;;
53714;SDS011;39608;55.630;37.864;2023-05-10T11:51:43;3.72;;;1.40;;
53714;SDS011;39608;55.630;37.864;2023-05-10T11:56:47;4.97;;;1.70;;
53714;SDS011;39608;55.630;37.864;2023-05-10T12:01:51;3.35;;;1.50;;
53714;SDS011;39608;55.630;37.864;2023-05-10T12:06:53;2.10;;;1.52;;
53714;SDS011;39608;55.630;37.864;2023-05-10T12:11:57;3.47;;;1.52;;
53714;SDS011;39608;55.630;37.864;2023-05-10T12:16:59;7.07;;;1.50;;
53714;SDS011;39608;55.630;37.864;2023-05-10T12:22:04;2.00;;;1.45;;
53714;SDS011;39608;55.630;37.864;2023-05-10T12:27:08;2.58;;;1.77;;
53714;SDS011;39608;55.630;37.864;2023-05-10T12:32:12;2.40;;;1.40;;
53714;SDS011;39608;55.630;37.864;2023-05-10T12:37:14;3.35;;;1.23;;
53714;SDS011;39608;55.630;37.864;2023-05-10T12:42:18;4.05;;;1.48;;
53714;SDS011;39608;55.630;37.864;2023-05-10T12:47:20;9.20;;;1.40;;
53714;SDS011;39608;55.630;37.864;2023-05-10T12:52:22;4.05;;;1.27;;
53714;SDS011;39608;55.630;37.864;2023-05-10T12:57:27;8.75;;;1.80;;
53714;SDS011;39608;55.630;37.864;2023-05-10T13:02:30;3.45;;;1.20;;
53714;SDS011;39608;55.630;37.864;2023-05-10T13:07:32;5.55;;;1.60;;
53714;SDS011;39608;55.630;37.864;2023-05-10T13:12:35;6.57;;;1.80;;
53714;SDS011;39608;55.630;37.864;2023-05-10T13:17:38;6.25;;;1.60;;
53714;SDS011;39608;55.630;37.864;2023-05-10T13:22:40;3.90;;;1.55;;
53714;SDS011;39608;55.630;37.864;2023-05-10T13:27:44;5.63;;;1.50;;
53714;SDS011;39608;55.630;37.864;2023-05-10T13:32:46;4.38;;;1.50;;
53714;SDS011;39608;55.630;37.864;2023-05-10T13:37:48;4.40;;;1.48;;
53714;SDS011;39608;55.630;37.864;2023-05-10T13:42:52;7.32;;;1.70;;
53714;SDS011;39608;55.630;37.864;2023-05-10T13:47:54;8.20;;;1.48;;
53714;SDS011;39608;55.630;37.864;2023-05-10T13:52:56;2.72;;;1.35;;
53714;SDS011;39608;55.630;37.864;2023-05-10T13:58:00;1.90;;;1.17;;
53714;SDS011;39608;55.630;37.864;2023-05-10T14:03:02;5.82;;;1.33;;
53714;SDS011;39608;55.630;37.864;2023-05-10T14:08:05;6.93;;;1.30;;
53714;SDS011;39608;55.630;37.864;2023-05-10T14:13:11;7.97;;;1.58;;
53714;SDS011;39608;55.630;37.864;2023-05-10T14:18:14;1.92;;;1.60;;
53714;SDS011;39608;55.630;37.864;2023-05-10T14:23:16;2.90;;;1.60;;
53714;SDS011;39608;55.630;37.864;2023-05-10T14:28:21;2.72;;;1.60;;
53714;SDS011;39608;55.630;37.864;2023-05-10T14:33:24;3.20;;;1.40;;
53714;SDS011;39608;55.630;37.864;2023-05-10T14:38:26;4.97;;;1.50;;
53714;SDS011;39608;55.630;37.864;2023-05-10T14:43:29;4.13;;;1.55;;
53714;SDS011;39608;55.630;37.864;2023-05-10T14:48:31;2.25;;;1.50;;
53714;SDS011;39608;55.630;37.864;2023-05-10T14:53:34;3.63;;;1.48;;
53714;SDS011;39608;55.630;37.864;2023-05-10T14:58:37;4.57;;;2.50;;
53714;SDS011;39608;55.630;37.864;2023-05-10T15:10:58;5.25;;;1.73;;
53714;SDS011;39608;55.630;37.864;2023-05-10T15:16:03;2.65;;;1.75;;
53714;SDS011;39608;55.630;37.864;2023-05-10T15:21:06;6.05;;;1.90;;
53714;SDS011;39608;55.630;37.864;2023-05-10T15:26:09;7.32;;;2.20;;
53714;SDS011;39608;55.630;37.864;2023-05-10T15:31:12;2.75;;;1.52;;
53714;SDS011;39608;55.630;37.864;2023-05-10T15:36:14;5.28;;;1.50;;
53714;SDS011;39608;55.630;37.864;2023-05-10T15:41:19;6.97;;;1.50;;
53714;SDS011;39608;55.630;37.864;2023-05-10T15:46:21;4.00;;;1.67;;
53714;SDS011;39608;55.630;37.864;2023-05-10T15:51:24;4.97;;;1.40;;
53714;SDS011;39608;55.630;37.864;2023-05-10T15:56:27;8.15;;;1.58;;
53714;SDS011;39608;55.630;37.864;2023-05-10T16:01:29;2.22;;;1.40;;
53714;SDS011;39608;55.630;37.864;2023-05-10T16:06:33;4.15;;;1.77;;
53714;SDS011;39608;55.630;37.864;2023-05-10T16:11:37;6.40;;;2.08;;
53714;SDS011;39608;55.630;37.864;2023-05-10T16:16:40;9.82;;;1.92;;
53714;SDS011;39608;55.630;37.864;2023-05-10T16:21:42;5.47;;;2.30;;
53714;SDS011;39608;55.630;37.864;2023-05-10T16:26:46;5.55;;;2.08;;
53714;SDS011;39608;55.630;37.864;2023-05-10T16:31:48;13.32;;;2.75;;
53714;SDS011;39608;55.630;37.864;2023-05-10T16:36:50;15.38;;;3.55;;
53714;SDS011;39608;55.630;37.864;2023-05-10T16:41:53;18.35;;;3.30;;
53714;SDS011;39608;55.630;37.864;2023-05-10T16:46:56;9.35;;;3.42;;
53714;SDS011;39608;55.630;37.864;2023-05-10T16:51:58;10.90;;;3.22;;
53714;SDS011;39608;55.630;37.864;2023-05-10T16:57:02;7.10;;;3.33;;
53714;SDS011;39608;55.630;37.864;2023-05-10T17:02:04;3.67;;;2.90;;
53714;SDS011;39608;55.630;37.864;2023-05-10T17:07:06;21.50;;;4.05;;
53714;SDS011;39608;55.630;37.864;2023-05-10T17:12:10;11.43;;;3.67;;
53714;SDS011;39608;55.630;37.864;2023-05-10T17:17:12;10.93;;;3.50;;
53714;SDS011;39608;55.630;37.864;2023-05-10T17:22:14;13.57;;;3.40;;
53714;SDS011;39608;55.630;37.864;2023-05-10T17:27:18;11.90;;;3.95;;
53714;SDS011;39608;55.630;37.864;2023-05-10T17:32:21;11.88;;;3.50;;
53714;SDS011;39608;55.630;37.864;2023-05-10T17:37:24;10.35;;;3.95;;
53714;SDS011;39608;55.630;37.864;2023-05-10T17:42:28;12.77;;;3.75;;
53714;SDS011;39608;55.630;37.864;2023-05-10T17:47:30;25.05;;;4.45;;
53714;SDS011;39608;55.630;37.864;2023-05-10T17:52:32;37.80;;;6.47;;
53714;SDS011;39608;55.630;37.864;2023-05-10T17:57:36;32.53;;;18.48;;
53714;SDS011;39608;55.630;37.864;2023-05-10T18:02:38;43.70;;;17.42;;
53714;SDS011;39608;55.630;37.864;2023-05-10T18:07:41;26.55;;;11.65;;
53714;SDS011;39608;55.630;37.864;2023-05-10T18:12:46;18.30;;;9.63;;
53714;SDS011;39608;55.630;37.864;2023-05-10T18:17:49;39.08;;;15.13;;
53714;SDS011;39608;55.630;37.864;2023-05-10T18:22:52;19.55;;;7.03;;
53714;SDS011;39608;55.630;37.864;2023-05-10T18:27:59;22.70;;;7.60;;
53714;SDS011;39608;55.630;37.864;2023-05-10T18:33:02;31.95;;;7.68;;
53714;SDS011;39608;55.630;37.864;2023-05-10T18:38:04;27.40;;;7.03;;
53714;SDS011;39608;55.630;37.864;2023-05-10T18:43:08;25.20;;;4.63;;
53714;SDS011;39608;55.630;37.864;2023-05-10T18:48:11;23.42;;;4.97;;
53714;SDS011;39608;55.630;37.864;2023-05-10T18:53:13;14.27;;;4.72;;
53714;SDS011;39608;55.630;37.864;2023-05-10T18:58:17;26.02;;;7.65;;
53714;SDS011;39608;55.630;37.864;2023-05-10T19:03:21;26.23;;;7.90;;
53714;SDS011;39608;55.630;37.864;2023-05-10T19:08:23;19.92;;;7.53;;
53714;SDS011;39608;55.630;37.864;2023-05-10T19:13:31;22.90;;;7.55;;
53714;SDS011;39608;55.630;37.864;2023-05-10T19:18:33;12.48;;;5.88;;
53714;SDS011;39608;55.630;37.864;2023-05-10T19:23:36;18.80;;;5.03;;
53714;SDS011;39608;55.630;37.864;2023-05-10T19:28:42;17.75;;;6.65;;
53714;SDS011;39608;55.630;37.864;2023-05-10T19:33:45;31.27;;;6.75;;
53714;SDS011;39608;55.630;37.864;2023-05-10T19:38:47;21.13;;;6.53;;
53714;SDS011;39608;55.630;37.864;2023-05-10T19:43:51;20.88;;;5.53;;
53714;SDS011;39608;55.630;37.864;2023-05-10T19:48:54;13.20;;;4.85;;
53714;SDS011;39608;55.630;37.864;2023-05-10T19:53:56;22.45;;;6.45;;
53714;SDS011;39608;55.630;37.864;2023-05-10T19:59:00;15.48;;;5.30;;
53714;SDS011;39608;55.630;37.864;2023-05-10T20:04:03;17.23;;;5.43;;
53714;SDS011;39608;55.630;37.864;2023-05-10T20:09:05;17.20;;;4.10;;
53714;SDS011;39608;55.630;37.864;2023-05-10T20:14:09;10.70;;;3.58;;
53714;SDS011;39608;55.630;37.864;2023-05-10T20:19:11;12.35;;;3.67;;
53714;SDS011;39608;55.630;37.864;2023-05-10T20:24:13;14.85;;;4.07;;
53714;SDS011;39608;55.630;37.864;2023-05-10T20:29:16;10.85;;;3.45;;
53714;SDS011;39608;55.630;37.864;2023-05-10T20:34:18;20.85;;;3.85;;
53714;SDS011;39608;55.630;37.864;2023-05-10T20:39:21;12.13;;;3.88;;
53714;SDS011;39608;55.630;37.864;2023-05-10T20:44:24;8.02;;;3.25;;
53714;SDS011;39608;55.630;37.864;2023-05-10T20:49:26;7.78;;;3.78;;
53714;SDS011;39608;55.630;37.864;2023-05-10T20:54:28;11.95;;;3.95;;
53714;SDS011;39608;55.630;37.864;2023-05-10T20:59:32;10.52;;;3.42;;
53714;SDS011;39608;55.630;37.864;2023-05-10T21:04:34;6.80;;;3.38;;
53714;SDS011;39608;55.630;37.864;2023-05-10T21:09:36;17.85;;;3.97;;
53714;SDS011;39608;55.630;37.864;2023-05-10T21:14:40;8.65;;;3.58;;
53714;SDS011;39608;55.630;37.864;2023-05-10T21:19:43;11.75;;;3.28;;
53714;SDS011;39608;55.630;37.864;2023-05-10T21:24:45;6.53;;;2.97;;
53714;SDS011;39608;55.630;37.864;2023-05-10T21:29:49;7.72;;;3.03;;
53714;SDS011;39608;55.630;37.864;2023-05-10T21:35:10;20.48;;;3.33;;
53714;SDS011;39608;55.630;37.864;2023-05-10T21:40:12;8.52;;;2.95;;
53714;SDS011;39608;55.630;37.864;2023-05-10T21:45:17;10.00;;;3.42;;
53714;SDS011;39608;55.630;37.864;2023-05-10T21:50:20;6.60;;;3.00;;
53714;SDS011;39608;55.630;37.864;2023-05-10T21:55:22;11.38;;;3.50;;
53714;SDS011;39608;55.630;37.864;2023-05-10T22:00:25;8.32;;;2.80;;
53714;SDS011;39608;55.630;37.864;2023-05-10T22:05:27;11.30;;;3.10;;
53714;SDS011;39608;55.630;37.864;2023-05-10T22:10:29;14.80;;;3.17;;
53714;SDS011;39608;55.630;37.864;2023-05-10T22:15:33;10.35;;;2.92;;
53714;SDS011;39608;55.630;37.864;2023-05-10T22:20:35;9.68;;;2.72;;
53714;SDS011;39608;55.630;37.864;2023-05-10T22:25:37;5.07;;;2.78;;
53714;SDS011;39608;55.630;37.864;2023-05-10T22:30:41;14.43;;;4.40;;
53714;SDS011;39608;55.630;37.864;2023-05-10T22:35:43;9.18;;;4.40;;
53714;SDS011;39608;55.630;37.864;2023-05-10T22:40:45;14.65;;;5.22;;
53714;SDS011;39608;55.630;37.864;2023-05-10T22:45:49;10.95;;;4.85;;
53714;SDS011;39608;55.630;37.864;2023-05-10T22:50:51;14.32;;;5.30;;
53714;SDS011;39608;55.630;37.864;2023-05-10T22:55:53;26.88;;;6.10;;
53714;SDS011;39608;55.630;37.864;2023-05-10T23:00:57;15.93;;;4.32;;
53714;SDS011;39608;55.630;37.864;2023-05-10T23:05:59;27.55;;;5.40;;
53714;SDS011;39608;55.630;37.864;2023-05-10T23:11:01;10.10;;;4.43;;
53714;SDS011;39608;55.630;37.864;2023-05-10T23:16:05;12.35;;;4.88;;
53714;SDS011;39608;55.630;37.864;2023-05-10T23:21:07;17.55;;;3.90;;
